createdAt,value
2018-06-08T00:00:13.731Z,77.70
2018-06-08T00:02:42.737Z,80.40
2018-06-08T00:05:11.761Z,78.80
2018-06-08T00:07:40.777Z,78.10
2018-06-08T00:10:09.917Z,79.80
2018-06-08T00:12:38.920Z,79.70
2018-06-08T00:15:07.890Z,77.90
2018-06-08T00:17:37.102Z,78.00
2018-06-08T00:20:06.160Z,79.00
2018-06-08T00:22:35.176Z,78.90
2018-06-08T00:25:04.208Z,80.40
2018-06-08T00:27:33.200Z,81.00
2018-06-08T00:30:02.225Z,79.30
2018-06-08T00:32:31.193Z,79.70
2018-06-08T00:35:00.222Z,80.50
2018-06-08T00:37:29.198Z,80.70
2018-06-08T00:39:58.204Z,81.30
2018-06-08T00:44:55.906Z,81.40
2018-06-08T00:47:24.915Z,81.00
2018-06-08T00:49:53.924Z,80.40
2018-06-08T00:52:22.896Z,80.70
2018-06-08T00:54:51.994Z,80.80
2018-06-08T00:57:20.994Z,81.40
2018-06-08T00:59:50.002Z,82.40
2018-06-08T01:02:18.972Z,81.50
2018-06-08T01:04:47.964Z,82.30
2018-06-08T01:07:17.064Z,79.70
2018-06-08T01:09:46.054Z,81.40
2018-06-08T01:12:15.028Z,80.10
2018-06-08T01:14:44.073Z,80.80
2018-06-08T01:17:13.106Z,81.10
2018-06-08T01:19:42.103Z,80.20
2018-06-08T01:22:11.120Z,80.60
2018-06-08T01:24:40.102Z,80.80
2018-06-08T01:27:09.198Z,81.60
2018-06-08T01:29:38.293Z,80.60
2018-06-08T01:32:07.304Z,81.50
2018-06-08T01:34:36.288Z,81.20
2018-06-08T01:37:05.287Z,79.70
2018-06-08T01:39:34.324Z,80.80
2018-06-08T01:42:03.376Z,79.90
2018-06-08T01:44:32.325Z,82.40
2018-06-08T01:47:01.306Z,81.40
2018-06-08T01:49:30.353Z,82.50
2018-06-08T01:51:59.375Z,83.10
2018-06-08T01:54:28.334Z,81.00
2018-06-08T01:56:57.301Z,82.70
2018-06-08T01:59:26.319Z,80.80
2018-06-08T02:01:55.337Z,81.60
2018-06-08T02:04:24.307Z,80.70
2018-06-08T02:06:53.409Z,79.90
2018-06-08T02:09:22.503Z,80.70
2018-06-08T02:11:51.517Z,80.00
2018-06-08T02:14:20.595Z,80.20
2018-06-08T02:16:49.615Z,80.40
2018-06-08T02:19:18.711Z,81.10
2018-06-08T02:21:47.769Z,80.90
2018-06-08T02:24:16.757Z,80.30
2018-06-08T02:26:45.845Z,81.20
2018-06-08T02:29:14.889Z,81.70
2018-06-08T02:31:43.890Z,80.10
2018-06-08T02:34:12.958Z,80.60
2018-06-08T02:36:41.966Z,80.50
2018-06-08T02:39:11.107Z,80.20
2018-06-08T02:41:40.106Z,80.30
2018-06-08T02:44:09.072Z,81.20
2018-06-08T02:46:38.103Z,80.20
2018-06-08T02:49:07.243Z,80.40
2018-06-08T02:51:36.276Z,80.50
2018-06-08T02:54:05.296Z,81.80
2018-06-08T02:56:34.279Z,84.40
2018-06-08T02:59:03.310Z,80.80
2018-06-08T03:01:32.361Z,80.70
2018-06-08T03:04:01.337Z,80.40
2018-06-08T03:06:30.302Z,81.00
2018-06-08T03:08:59.288Z,80.60
2018-06-08T03:11:28.362Z,81.10
2018-06-08T03:13:57.344Z,79.20
2018-06-08T03:16:26.311Z,79.50
2018-06-08T03:18:55.335Z,79.50
2018-06-08T03:21:24.350Z,80.10
2018-06-08T03:23:53.307Z,79.60
2018-06-08T03:26:22.273Z,81.00
2018-06-08T03:28:51.329Z,80.50
2018-06-08T03:31:20.342Z,80.80
2018-06-08T03:33:49.313Z,80.70
2018-06-08T03:36:18.420Z,80.30
2018-06-08T03:38:47.401Z,81.40
2018-06-08T03:41:16.584Z,80.20
2018-06-08T03:43:45.677Z,81.00
2018-06-08T03:46:14.733Z,82.40
2018-06-08T03:51:12.389Z,81.40
2018-06-08T03:53:41.445Z,81.80
2018-06-08T03:56:10.408Z,80.10
2018-06-08T03:58:39.397Z,81.00
2018-06-08T04:01:08.380Z,83.10
2018-06-08T04:03:37.524Z,82.30
2018-06-08T04:06:06.620Z,82.10
2018-06-08T04:08:35.677Z,80.70
2018-06-08T04:13:33.409Z,80.50
2018-06-08T04:16:02.394Z,80.10
2018-06-08T04:18:31.388Z,81.10
2018-06-08T04:21:00.362Z,80.80
2018-06-08T04:23:29.380Z,82.20
2018-06-08T04:25:58.434Z,81.70
2018-06-08T04:28:27.422Z,82.40
2018-06-08T04:30:56.420Z,82.20
2018-06-08T04:33:25.543Z,83.10
2018-06-08T04:35:54.502Z,82.60
2018-06-08T04:38:23.468Z,81.80
2018-06-08T04:40:52.700Z,82.40
2018-06-08T04:43:21.724Z,81.20
2018-06-08T04:45:50.724Z,81.40
2018-06-08T04:48:19.707Z,82.00
2018-06-08T04:50:48.695Z,82.90
2018-06-08T04:53:17.716Z,83.70
2018-06-08T04:55:46.680Z,84.90
2018-06-08T04:58:15.665Z,84.30
2018-06-08T05:00:44.669Z,82.20
2018-06-08T05:03:13.693Z,82.80
2018-06-08T05:05:42.688Z,84.10
2018-06-08T05:08:11.652Z,83.70
2018-06-08T05:10:40.659Z,83.30
2018-06-08T05:13:09.696Z,83.30
2018-06-08T05:15:38.666Z,82.50
2018-06-08T05:18:07.686Z,82.20
2018-06-08T05:20:36.768Z,84.40
2018-06-08T05:23:05.818Z,84.30
2018-06-08T05:25:34.862Z,84.40
2018-06-08T05:28:03.848Z,83.70
2018-06-08T05:30:32.852Z,83.80
2018-06-08T05:33:01.883Z,83.40
2018-06-08T05:35:30.878Z,83.10
2018-06-08T05:37:59.868Z,82.70
2018-06-08T05:40:28.864Z,83.30
2018-06-08T05:42:57.880Z,82.90
2018-06-08T05:45:26.954Z,84.70
2018-06-08T05:47:55.948Z,84.70
2018-06-08T05:50:24.987Z,84.90
2018-06-08T05:52:53.976Z,84.90
2018-06-08T05:55:22.992Z,84.40
2018-06-08T05:57:51.942Z,85.20
2018-06-08T06:00:20.927Z,85.60
2018-06-08T06:02:49.975Z,85.10
2018-06-08T06:05:19.084Z,86.60
2018-06-08T06:07:48.082Z,85.10
2018-06-08T06:10:17.089Z,85.00
2018-06-08T06:12:46.126Z,84.60
2018-06-08T06:15:15.120Z,85.20
2018-06-08T06:17:44.274Z,84.60
2018-06-08T06:20:13.252Z,84.90
2018-06-08T06:22:42.235Z,84.80
2018-06-08T06:25:11.232Z,85.70
2018-06-08T06:27:40.209Z,85.00
2018-06-08T06:30:09.249Z,85.00
2018-06-08T06:32:38.215Z,84.50
2018-06-08T06:37:35.881Z,84.00
2018-06-08T06:40:04.870Z,85.30
2018-06-08T06:42:33.833Z,84.90
2018-06-08T06:45:02.978Z,84.00
2018-06-08T06:47:31.990Z,84.00
2018-06-08T06:50:00.949Z,83.80
2018-06-08T06:52:29.961Z,84.30
2018-06-08T06:54:58.945Z,84.20
2018-06-08T06:57:27.963Z,83.40
2018-06-08T06:59:56.913Z,83.40
2018-06-08T07:02:25.934Z,84.00
2018-06-08T07:04:54.981Z,84.80
2018-06-08T07:07:23.969Z,83.20
2018-06-08T07:12:21.797Z,83.00
2018-06-08T07:17:19.560Z,83.70
2018-06-08T07:19:48.544Z,83.90
2018-06-08T07:22:20.305Z,83.50
2018-06-08T07:24:49.535Z,83.60
2018-06-08T07:27:18.537Z,83.30
2018-06-08T07:29:47.545Z,83.60
2018-06-08T07:32:16.540Z,84.00
2018-06-08T07:34:45.620Z,84.10
2018-06-08T07:37:14.609Z,84.00
2018-06-08T07:39:43.574Z,84.30
2018-06-08T07:42:12.576Z,84.00
2018-06-08T07:47:10.245Z,84.30
2018-06-08T07:49:39.270Z,84.30
2018-06-08T07:52:08.276Z,84.20
2018-06-08T07:54:37.290Z,83.90
2018-06-08T07:57:06.716Z,83.60
2018-06-08T07:59:35.845Z,84.00
2018-06-08T08:02:04.834Z,83.80
2018-06-08T08:04:33.882Z,83.90
2018-06-08T08:07:02.894Z,83.90
2018-06-08T08:09:31.862Z,84.60
2018-06-08T08:12:00.902Z,84.50
2018-06-08T08:14:30.022Z,84.00
2018-06-08T08:16:59.118Z,84.30
2018-06-08T08:19:28.118Z,84.00
2018-06-08T08:21:57.120Z,84.50
2018-06-08T08:24:26.264Z,83.80
2018-06-08T08:26:55.348Z,84.10
2018-06-08T08:29:24.318Z,83.90
2018-06-08T08:31:53.325Z,83.80
2018-06-08T08:34:22.380Z,84.10
2018-06-08T08:36:51.576Z,83.70
2018-06-08T08:39:20.532Z,83.10
2018-06-08T08:41:49.528Z,83.10
2018-06-08T08:44:19.336Z,82.80
2018-06-08T08:46:48.376Z,82.70
2018-06-08T08:49:17.358Z,82.20
2018-06-08T08:51:46.417Z,82.30
2018-06-08T08:54:15.440Z,82.00
2018-06-08T08:56:44.520Z,82.20
2018-06-08T08:59:13.460Z,82.10
2018-06-08T09:01:42.448Z,82.00
2018-06-08T09:04:11.525Z,82.30
2018-06-08T09:06:40.530Z,82.20
2018-06-08T09:09:09.643Z,82.30
2018-06-08T09:11:38.653Z,82.50
2018-06-08T09:14:07.623Z,82.60
2018-06-08T09:16:36.678Z,82.30
2018-06-08T09:19:05.642Z,82.40
2018-06-08T09:21:34.664Z,81.90
2018-06-08T09:24:03.778Z,82.00
2018-06-08T09:26:32.853Z,81.90
2018-06-08T09:29:01.968Z,81.80
2018-06-08T09:31:30.921Z,81.50
2018-06-08T09:33:59.915Z,81.30
2018-06-08T09:36:28.905Z,81.40
2018-06-08T09:38:57.899Z,80.70
2018-06-08T09:41:26.891Z,80.90
2018-06-08T09:43:55.970Z,81.00
2018-06-08T09:46:24.993Z,80.60
2018-06-08T09:48:54.024Z,80.40
2018-06-08T09:51:23.042Z,80.40
2018-06-08T09:53:52.289Z,80.50
2018-06-08T09:56:21.326Z,81.40
2018-06-08T09:58:50.313Z,79.60
2018-06-08T10:01:19.319Z,80.30
2018-06-08T10:03:48.313Z,80.30
2018-06-08T10:06:17.358Z,78.80
2018-06-08T10:11:14.988Z,78.00
2018-06-08T10:13:44.049Z,78.60
2018-06-08T10:16:13.096Z,77.40
2018-06-08T10:18:42.139Z,77.70
2018-06-08T10:21:11.163Z,77.80
2018-06-08T10:23:40.155Z,77.40
2018-06-08T10:26:09.177Z,78.20
2018-06-08T10:28:38.207Z,77.50
2018-06-08T10:31:07.923Z,76.70
2018-06-08T10:33:36.909Z,76.30
2018-06-08T10:36:06.101Z,77.40
2018-06-08T10:38:35.116Z,75.10
2018-06-08T10:41:04.081Z,77.10
2018-06-08T10:43:33.087Z,77.40
2018-06-08T10:48:30.805Z,76.60
2018-06-08T10:50:59.797Z,76.00
2018-06-08T10:53:28.963Z,75.10
2018-06-08T10:55:58.029Z,74.70
2018-06-08T10:58:27.026Z,75.10
2018-06-08T11:00:56.012Z,72.10
2018-06-08T11:03:25.003Z,73.20
2018-06-08T11:05:54.027Z,73.00
2018-06-08T11:08:23.002Z,74.00
2018-06-08T11:10:51.978Z,72.20
2018-06-08T11:13:20.976Z,71.30
2018-06-08T11:18:18.612Z,74.80
2018-06-08T11:20:47.684Z,72.60
2018-06-08T11:23:16.704Z,71.50
2018-06-08T11:25:45.720Z,72.00
2018-06-08T11:28:14.748Z,70.50
2018-06-08T11:30:43.730Z,70.70
2018-06-08T11:33:12.698Z,69.90
2018-06-08T11:35:41.732Z,71.40
2018-06-08T11:38:10.840Z,72.00
2018-06-08T11:40:39.822Z,72.20
2018-06-08T11:43:08.845Z,71.20
2018-06-08T11:45:37.849Z,70.70
2018-06-08T11:48:06.861Z,68.80
2018-06-08T11:53:14.048Z,70.40
2018-06-08T11:55:43.045Z,69.00
2018-06-08T11:58:12.083Z,69.00
2018-06-08T12:00:41.074Z,67.30
2018-06-08T12:03:10.082Z,68.70
2018-06-08T12:05:39.103Z,69.40
2018-06-08T12:08:08.142Z,69.20
2018-06-08T12:10:37.118Z,66.70
2018-06-08T12:13:06.114Z,69.20
2018-06-08T12:15:35.265Z,69.50
2018-06-08T12:18:04.306Z,68.10
2018-06-08T12:20:33.312Z,70.40
2018-06-08T12:23:02.288Z,70.30
2018-06-08T12:25:31.508Z,70.90
2018-06-08T12:28:00.624Z,66.80
2018-06-08T12:30:29.588Z,68.30
2018-06-08T12:32:58.540Z,67.80
2018-06-08T12:35:27.519Z,67.30
2018-06-08T12:37:56.646Z,66.30
2018-06-08T12:40:25.620Z,67.60
2018-06-08T12:42:54.630Z,65.80
2018-06-08T12:45:23.635Z,66.70
2018-06-08T12:47:52.792Z,66.40
2018-06-08T12:50:21.764Z,66.20
2018-06-08T12:52:50.740Z,66.20
2018-06-08T12:55:19.740Z,65.20
2018-06-08T12:57:48.732Z,65.40
2018-06-08T13:00:17.752Z,64.80
2018-06-08T13:02:46.894Z,63.60
2018-06-08T13:05:15.888Z,65.30
2018-06-08T13:07:44.934Z,66.90
2018-06-08T13:10:13.962Z,66.80
2018-06-08T13:12:42.969Z,64.80
2018-06-08T13:15:12.230Z,66.10
2018-06-08T13:17:41.326Z,64.40
2018-06-08T13:20:10.422Z,64.70
2018-06-08T13:22:39.402Z,66.00
2018-06-08T13:25:08.437Z,64.60
2018-06-08T13:27:37.513Z,65.70
2018-06-08T13:30:06.524Z,65.60
2018-06-08T13:32:35.528Z,66.20
2018-06-08T13:35:04.532Z,67.10
2018-06-08T13:37:33.567Z,67.20
2018-06-08T13:40:02.560Z,66.60
2018-06-08T13:42:31.533Z,65.90
2018-06-08T13:45:00.533Z,63.20
2018-06-08T13:47:29.527Z,64.00
2018-06-08T13:49:58.609Z,63.00
2018-06-08T13:52:27.592Z,63.70
2018-06-08T13:54:56.589Z,64.60
2018-06-08T13:59:54.279Z,63.90
2018-06-08T14:04:51.978Z,65.20
2018-06-08T14:09:49.625Z,63.90
2018-06-08T14:12:18.667Z,64.90
2018-06-08T14:14:47.638Z,65.00
2018-06-08T14:17:16.647Z,65.80
2018-06-08T14:19:45.658Z,65.40
2018-06-08T14:22:14.644Z,63.60
2018-06-08T14:24:43.600Z,64.10
2018-06-08T14:27:12.606Z,63.60
2018-06-08T14:29:41.616Z,63.40
2018-06-08T14:32:10.580Z,64.30
2018-06-08T14:34:39.580Z,64.40
2018-06-08T14:37:08.543Z,63.50
2018-06-08T14:39:37.589Z,64.10
2018-06-08T14:42:06.580Z,63.50
2018-06-08T14:44:35.578Z,62.20
2018-06-08T14:47:04.670Z,61.20
2018-06-08T14:49:33.761Z,59.00
2018-06-08T14:52:03.506Z,60.20
2018-06-08T14:54:32.492Z,58.90
2018-06-08T14:57:01.466Z,59.10
2018-06-08T14:59:30.492Z,59.60
2018-06-08T15:01:59.468Z,61.80
2018-06-08T15:04:28.478Z,59.10
2018-06-08T15:06:57.522Z,59.60
2018-06-08T15:09:26.614Z,58.10
2018-06-08T15:11:55.628Z,60.30
2018-06-08T15:14:24.638Z,61.50
2018-06-08T15:16:53.676Z,58.10
2018-06-08T15:19:22.815Z,57.60
2018-06-08T15:21:51.842Z,58.80
2018-06-08T15:24:20.817Z,57.80
2018-06-08T15:26:49.801Z,58.30
2018-06-08T15:29:18.860Z,60.20
2018-06-08T15:31:47.880Z,58.20
2018-06-08T15:34:16.887Z,58.50
2018-06-08T15:36:45.873Z,59.10
2018-06-08T15:39:14.854Z,59.50
2018-06-08T15:41:43.904Z,58.80
2018-06-08T15:44:12.947Z,57.50
2018-06-08T15:46:42.004Z,58.10
2018-06-08T15:49:11.029Z,58.30
2018-06-08T15:51:40.144Z,57.20
2018-06-08T15:54:09.230Z,57.10
2018-06-08T15:56:38.218Z,59.20
2018-06-08T15:59:07.525Z,57.30
2018-06-08T16:01:36.564Z,58.80
2018-06-08T16:04:05.770Z,57.10
2018-06-08T16:06:34.765Z,58.10
2018-06-08T16:09:04.356Z,56.80
2018-06-08T16:11:33.482Z,57.90
2018-06-08T16:14:02.498Z,57.30
2018-06-08T16:16:31.529Z,58.40
2018-06-08T16:19:00.572Z,58.00
2018-06-08T16:21:29.631Z,58.30
2018-06-08T16:23:58.640Z,57.40
2018-06-08T16:28:56.262Z,58.50
2018-06-08T16:31:25.252Z,58.60
2018-06-08T16:33:54.254Z,57.60
2018-06-08T16:36:23.361Z,59.00
2018-06-08T16:38:52.373Z,58.40
2018-06-08T16:41:21.403Z,58.40
2018-06-08T16:43:50.378Z,58.90
2018-06-08T16:46:19.359Z,58.80
2018-06-08T16:48:48.346Z,59.00
2018-06-08T16:51:17.351Z,58.90
2018-06-08T16:53:46.362Z,59.10
2018-06-08T16:56:15.532Z,60.00
2018-06-08T16:58:44.662Z,61.00
2018-06-08T17:01:13.748Z,60.40
2018-06-08T17:03:42.780Z,59.90
2018-06-08T17:06:11.826Z,61.20
2018-06-08T17:08:40.840Z,61.20
2018-06-08T17:11:09.906Z,61.40
2018-06-08T17:13:38.903Z,61.70
2018-06-08T17:16:07.953Z,62.30
2018-06-08T17:18:36.951Z,62.50
2018-06-08T17:21:05.986Z,62.90
2018-06-08T17:23:35.117Z,63.10
2018-06-08T17:26:04.209Z,63.10
2018-06-08T17:28:33.365Z,63.40
2018-06-08T17:31:02.442Z,63.60
2018-06-08T17:33:31.406Z,63.70
2018-06-08T17:36:00.442Z,64.00
2018-06-08T17:38:30.223Z,63.70
2018-06-08T17:40:59.256Z,63.60
2018-06-08T17:43:28.257Z,63.30
2018-06-08T17:45:57.234Z,63.10
2018-06-08T17:48:26.263Z,62.50
2018-06-08T17:50:55.277Z,62.50
2018-06-08T17:53:24.291Z,62.80
2018-06-08T17:55:53.305Z,63.40
2018-06-08T17:58:22.396Z,63.30
2018-06-08T18:00:51.450Z,62.50
2018-06-08T18:03:20.427Z,62.70
2018-06-08T18:05:49.444Z,62.70
2018-06-08T18:08:18.449Z,62.80
2018-06-08T18:10:47.525Z,62.20
2018-06-08T18:13:16.531Z,62.40
2018-06-08T18:15:45.549Z,62.80
2018-06-08T18:18:14.589Z,62.80
2018-06-08T18:20:43.640Z,62.70
2018-06-08T18:23:12.651Z,64.00
2018-06-08T18:25:41.669Z,64.30
2018-06-08T18:28:10.771Z,64.80
2018-06-08T18:33:08.632Z,65.40
2018-06-08T18:35:37.628Z,65.30
2018-06-08T18:38:06.662Z,65.20
2018-06-08T18:40:35.657Z,65.20
2018-06-08T18:43:04.696Z,65.30
2018-06-08T18:45:33.690Z,65.50
2018-06-08T18:48:02.737Z,65.30
2018-06-08T18:50:31.760Z,65.20
2018-06-08T18:53:00.762Z,65.80
2018-06-08T18:55:29.936Z,65.90
2018-06-08T18:57:58.958Z,65.90
2018-06-08T19:00:27.962Z,65.90
2018-06-08T19:02:56.976Z,66.30
2018-06-08T19:05:26.022Z,67.10
2018-06-08T19:07:55.020Z,67.40
2018-06-08T19:10:24.113Z,67.10
2018-06-08T19:12:53.152Z,67.10
2018-06-08T19:15:22.138Z,67.20
2018-06-08T19:17:51.189Z,66.60
2018-06-08T19:20:20.206Z,67.50
2018-06-08T19:22:50.086Z,68.70
2018-06-08T19:25:19.166Z,70.50
2018-06-08T19:27:48.166Z,70.50
2018-06-08T19:30:17.282Z,71.00
2018-06-08T19:32:46.321Z,71.00
2018-06-08T19:35:15.363Z,71.00
2018-06-08T19:37:44.467Z,72.50
2018-06-08T19:40:13.514Z,71.70
2018-06-08T19:42:42.497Z,71.70
2018-06-08T19:45:11.548Z,72.40
2018-06-08T19:47:40.637Z,71.80
2018-06-08T19:50:09.693Z,71.20
2018-06-08T19:52:38.716Z,71.80
2018-06-08T19:55:07.708Z,72.60
2018-06-08T19:57:36.705Z,73.10
2018-06-08T20:00:05.794Z,72.30
2018-06-08T20:02:34.834Z,71.20
2018-06-08T20:05:03.882Z,72.20
2018-06-08T20:07:32.995Z,72.30
2018-06-08T20:10:02.065Z,72.20
2018-06-08T20:12:31.557Z,71.90
2018-06-08T20:15:00.895Z,73.10
2018-06-08T20:17:29.907Z,73.80
2018-06-08T20:19:59.006Z,74.10
2018-06-08T20:22:28.943Z,72.80
2018-06-08T20:24:58.005Z,73.50
2018-06-08T20:27:27.338Z,74.00
2018-06-08T20:29:56.314Z,73.30
2018-06-08T20:32:25.424Z,73.10
2018-06-08T20:34:54.445Z,74.30
2018-06-08T20:37:23.717Z,75.20
2018-06-08T20:39:52.731Z,74.40
2018-06-08T20:42:21.782Z,73.90
2018-06-08T20:44:50.865Z,74.40
2018-06-08T20:47:19.958Z,73.90
2018-06-08T20:49:48.981Z,74.40
2018-06-08T20:52:18.055Z,75.00
2018-06-08T20:54:47.050Z,73.90
2018-06-08T20:57:24.645Z,75.60
2018-06-08T20:59:53.814Z,75.90
2018-06-08T21:02:23.008Z,75.20
2018-06-08T21:07:20.692Z,75.20
2018-06-08T21:09:49.723Z,73.70
2018-06-08T21:12:18.731Z,73.70
2018-06-08T21:14:47.767Z,75.30
2018-06-08T21:17:16.749Z,75.30
2018-06-08T21:19:45.880Z,76.20
2018-06-08T21:22:14.891Z,76.60
2018-06-08T21:24:43.905Z,76.40
2018-06-08T21:27:12.906Z,74.60
2018-06-08T21:29:41.930Z,74.40
2018-06-08T21:32:10.907Z,75.60
2018-06-08T21:37:08.593Z,74.90
2018-06-08T21:39:37.590Z,76.60
2018-06-08T21:42:06.665Z,77.50
2018-06-08T21:44:35.703Z,76.90
2018-06-08T21:47:04.714Z,76.70
2018-06-08T21:49:33.718Z,77.50
2018-06-08T21:52:02.740Z,79.10
2018-06-08T21:54:31.736Z,77.50
2018-06-08T21:57:00.698Z,77.00
2018-06-08T21:59:29.678Z,77.50
2018-06-08T22:01:58.734Z,78.00
2018-06-08T22:04:27.728Z,78.30
2018-06-08T22:06:56.861Z,77.10
2018-06-08T22:09:25.880Z,77.90
2018-06-08T22:11:54.942Z,77.90
2018-06-08T22:14:24.032Z,77.50
2018-06-08T22:16:53.006Z,78.70
2018-06-08T22:19:21.987Z,78.30
2018-06-08T22:21:51.016Z,79.00
2018-06-08T22:24:20.056Z,78.80
2018-06-08T22:26:49.052Z,76.70
2018-06-08T22:29:18.043Z,78.40
2018-06-08T22:31:47.058Z,80.00
2018-06-08T22:34:16.097Z,79.10
2018-06-08T22:36:45.066Z,79.60
2018-06-08T22:39:14.026Z,79.20
2018-06-08T22:41:43.170Z,76.90
2018-06-08T22:44:12.165Z,77.40
2018-06-08T22:46:41.154Z,77.30
2018-06-08T22:49:10.127Z,80.60
2018-06-08T22:51:39.134Z,79.00
2018-06-08T22:54:08.189Z,79.00
2018-06-08T22:56:37.173Z,79.60
2018-06-08T22:59:06.172Z,78.60
2018-06-08T23:01:35.217Z,80.00
2018-06-08T23:04:04.307Z,78.90
2018-06-08T23:06:33.275Z,79.70
2018-06-08T23:09:02.305Z,78.80
2018-06-08T23:11:31.269Z,80.10
2018-06-08T23:14:00.385Z,79.80
2018-06-08T23:16:29.353Z,78.80
2018-06-08T23:18:58.353Z,79.90
2018-06-08T23:21:27.341Z,80.80
2018-06-08T23:23:56.383Z,80.20
2018-06-08T23:26:25.425Z,79.40
2018-06-08T23:28:54.397Z,77.40
2018-06-08T23:31:23.357Z,79.40
2018-06-08T23:33:52.348Z,79.90
2018-06-08T23:36:21.325Z,80.30
2018-06-08T23:38:50.301Z,80.40
2018-06-08T23:41:19.265Z,80.70
2018-06-08T23:43:48.266Z,80.10
2018-06-08T23:46:17.247Z,80.90
2018-06-08T23:48:46.233Z,81.40
2018-06-08T23:51:15.205Z,81.10
2018-06-08T23:53:44.170Z,82.70
2018-06-08T23:56:13.153Z,81.40
2018-06-08T23:58:42.117Z,80.50
